createdAt,value
2023-05-10T00:01:01.126Z,10.73
2023-05-10T00:04:05.924Z,11.00
2023-05-10T00:07:08.558Z,10.20
2023-05-10T00:10:11.828Z,10.03
2023-05-10T00:13:14.704Z,12.17
2023-05-10T00:16:17.435Z,9.55
2023-05-10T00:19:20.058Z,10.50
2023-05-10T00:22:22.657Z,10.35
2023-05-10T00:25:25.322Z,10.60
2023-05-10T00:28:29.748Z,8.67
2023-05-10T00:31:32.875Z,9.32
2023-05-10T00:34:35.499Z,10.98
2023-05-10T00:37:38.219Z,10.23
2023-05-10T00:40:40.891Z,11.93
2023-05-10T00:43:50.142Z,10.00
2023-05-10T00:46:53.548Z,13.35
2023-05-10T00:49:56.901Z,12.88
2023-05-10T00:53:00.765Z,11.75
2023-05-10T00:56:04.352Z,12.53
2023-05-10T00:59:07.118Z,16.53
2023-05-10T01:02:09.820Z,11.77
2023-05-10T01:05:12.925Z,13.95
2023-05-10T01:08:15.676Z,11.65
2023-05-10T01:11:18.365Z,13.40
2023-05-10T01:14:21.606Z,13.30
2023-05-10T01:17:24.542Z,13.00
2023-05-10T01:20:28.146Z,12.07
2023-05-10T01:24:01.545Z,12.65
2023-05-10T01:27:46.238Z,13.03
2023-05-10T01:30:48.799Z,11.27
2023-05-10T01:34:03.314Z,12.98
2023-05-10T01:37:11.879Z,12.38
2023-05-10T01:40:52.050Z,13.90
2023-05-10T01:44:32.274Z,11.83
2023-05-10T01:47:47.469Z,14.47
2023-05-10T01:50:52.165Z,11.75
2023-05-10T01:54:01.678Z,13.73
2023-05-10T01:57:07.356Z,14.95
2023-05-10T02:00:11.851Z,14.70
2023-05-10T02:03:17.520Z,14.90
2023-05-10T02:06:21.656Z,13.88
2023-05-10T02:09:25.501Z,12.95
2023-05-10T02:12:29.532Z,14.90
2023-05-10T02:15:32.533Z,14.37
2023-05-10T02:18:37.036Z,14.73
2023-05-10T02:21:41.364Z,13.93
2023-05-10T02:24:44.864Z,13.82
2023-05-10T02:27:48.691Z,15.13
2023-05-10T02:30:52.074Z,12.40
2023-05-10T02:33:55.352Z,13.40
2023-05-10T02:36:58.153Z,14.80
2023-05-10T02:40:04.183Z,14.30
2023-05-10T02:43:07.979Z,14.70
2023-05-10T02:46:10.574Z,15.00
2023-05-10T02:49:13.259Z,13.00
2023-05-10T02:52:24.218Z,13.73
2023-05-10T02:55:34.332Z,15.35
2023-05-10T02:58:36.926Z,15.93
2023-05-10T03:01:39.727Z,17.00
2023-05-10T03:04:42.997Z,23.07
2023-05-10T03:07:46.649Z,23.88
2023-05-10T03:11:10.594Z,21.45
2023-05-10T03:14:31.994Z,19.42
2023-05-10T03:17:48.808Z,19.17
2023-05-10T03:20:56.653Z,17.20
2023-05-10T03:24:20.100Z,22.02
2023-05-10T03:27:26.512Z,19.30
2023-05-10T03:30:30.548Z,20.63
2023-05-10T03:33:33.568Z,20.83
2023-05-10T03:36:36.260Z,18.70
2023-05-10T03:39:38.934Z,19.55
2023-05-10T03:42:43.728Z,18.75
2023-05-10T03:45:46.470Z,19.73
2023-05-10T03:48:49.176Z,20.33
2023-05-10T03:51:51.807Z,20.03
2023-05-10T03:54:54.470Z,18.88
2023-05-10T03:57:57.357Z,21.92
2023-05-10T04:01:00.677Z,19.92
2023-05-10T04:04:03.566Z,21.03
2023-05-10T04:07:07.778Z,19.47
2023-05-10T04:10:11.054Z,21.80
2023-05-10T04:13:13.753Z,23.42
2023-05-10T04:16:16.463Z,20.83
2023-05-10T04:19:19.066Z,21.63
2023-05-10T04:22:21.988Z,22.60
2023-05-10T04:25:24.692Z,21.60
2023-05-10T04:28:28.312Z,23.25
2023-05-10T04:31:33.785Z,20.70
2023-05-10T04:34:39.182Z,21.80
2023-05-10T04:37:41.857Z,21.37
2023-05-10T04:40:44.545Z,28.98
2023-05-10T04:43:49.926Z,20.65
2023-05-10T04:46:52.492Z,22.33
2023-05-10T04:50:00.061Z,17.83
2023-05-10T04:53:02.681Z,18.37
2023-05-10T04:56:05.708Z,19.92
2023-05-10T04:59:08.438Z,19.08
2023-05-10T05:02:11.024Z,19.75
2023-05-10T05:05:13.925Z,18.17
2023-05-10T05:08:16.823Z,19.53
2023-05-10T05:11:19.822Z,18.50
2023-05-10T05:14:22.585Z,17.10
2023-05-10T05:17:27.895Z,16.25
2023-05-10T05:20:37.148Z,17.40
2023-05-10T05:23:40.713Z,16.30
2023-05-10T05:26:43.317Z,17.05
2023-05-10T05:29:48.793Z,17.33
2023-05-10T05:32:51.514Z,19.77
2023-05-10T05:35:54.241Z,16.43
2023-05-10T05:38:57.145Z,17.67
2023-05-10T05:41:59.887Z,14.15
2023-05-10T05:45:04.850Z,16.98
2023-05-10T05:48:07.699Z,16.85
2023-05-10T05:51:10.374Z,15.70
2023-05-10T05:54:17.093Z,14.90
2023-05-10T05:57:22.683Z,16.40
2023-05-10T06:00:26.756Z,12.70
2023-05-10T06:03:29.499Z,13.43
2023-05-10T06:06:33.414Z,12.40
2023-05-10T06:09:36.227Z,11.57
2023-05-10T06:12:41.860Z,11.77
2023-05-10T06:15:48.114Z,11.63
2023-05-10T06:18:50.836Z,14.32
2023-05-10T06:21:53.948Z,12.77
2023-05-10T06:24:59.511Z,13.07
2023-05-10T06:28:02.386Z,11.82
2023-05-10T06:31:08.068Z,11.98
2023-05-10T06:34:10.856Z,12.15
2023-05-10T06:37:13.467Z,13.47
2023-05-10T06:40:16.704Z,13.27
2023-05-10T06:43:19.351Z,13.48
2023-05-10T06:46:22.118Z,11.52
2023-05-10T06:49:24.804Z,11.20
2023-05-10T06:52:27.366Z,13.97
2023-05-10T06:55:30.534Z,14.00
2023-05-10T06:58:33.895Z,14.50
2023-05-10T07:01:36.544Z,13.82
2023-05-10T07:04:39.260Z,10.18
2023-05-10T07:07:42.056Z,9.83
2023-05-10T07:10:44.839Z,11.47
2023-05-10T07:13:47.589Z,12.70
2023-05-10T07:16:50.585Z,11.15
2023-05-10T07:19:53.318Z,9.40
2023-05-10T07:22:56.010Z,9.37
2023-05-10T07:25:58.828Z,9.83
2023-05-10T07:29:01.767Z,8.60
2023-05-10T07:32:05.039Z,11.32
2023-05-10T07:35:08.014Z,12.88
2023-05-10T07:38:12.437Z,11.93
2023-05-10T07:41:15.073Z,10.47
2023-05-10T07:44:20.257Z,12.75
2023-05-10T07:47:23.026Z,15.23
2023-05-10T07:50:25.688Z,10.38
2023-05-10T07:53:28.783Z,8.32
2023-05-10T07:56:33.409Z,8.40
2023-05-10T07:59:41.482Z,7.93
2023-05-10T08:02:44.260Z,8.30
2023-05-10T08:05:47.060Z,9.30
2023-05-10T08:08:54.729Z,9.55
2023-05-10T08:11:57.633Z,7.32
2023-05-10T08:15:00.546Z,7.90
2023-05-10T08:18:03.310Z,8.00
2023-05-10T08:21:06.357Z,9.25
2023-05-10T08:24:09.143Z,5.82
2023-05-10T08:27:11.988Z,6.05
2023-05-10T08:30:16.908Z,9.63
2023-05-10T08:33:20.025Z,9.57
2023-05-10T08:36:25.293Z,5.75
2023-05-10T08:39:30.781Z,8.00
2023-05-10T08:42:37.373Z,8.18
2023-05-10T08:45:42.396Z,11.17
2023-05-10T08:48:49.191Z,6.60
2023-05-10T08:51:56.119Z,7.13
2023-05-10T08:54:59.349Z,6.93
2023-05-10T08:58:04.807Z,6.55
2023-05-10T09:01:07.597Z,6.33
2023-05-10T09:04:10.581Z,6.67
2023-05-10T09:07:13.687Z,5.88
2023-05-10T09:10:17.013Z,5.35
2023-05-10T09:13:20.615Z,7.18
2023-05-10T09:16:24.513Z,5.63
2023-05-10T09:19:27.238Z,5.33
2023-05-10T09:22:29.976Z,6.07
2023-05-10T09:25:34.467Z,5.88
2023-05-10T09:28:57.918Z,5.80
2023-05-10T09:32:00.560Z,6.07
2023-05-10T09:35:18.154Z,6.03
2023-05-10T09:38:21.015Z,7.80
2023-05-10T09:41:24.725Z,7.38
2023-05-10T09:44:29.050Z,5.90
2023-05-10T09:47:36.731Z,7.43
2023-05-10T09:50:40.291Z,7.03
2023-05-10T09:53:46.982Z,6.78
2023-05-10T09:56:49.952Z,11.75
2023-05-10T09:59:54.671Z,7.40
2023-05-10T10:03:03.720Z,8.10
2023-05-10T10:06:18.902Z,9.90
2023-05-10T10:09:29.842Z,10.10
2023-05-10T10:12:32.809Z,6.40
2023-05-10T10:15:36.128Z,7.47
2023-05-10T10:18:42.065Z,7.00
2023-05-10T10:21:45.656Z,11.33
2023-05-10T10:24:48.454Z,6.70
2023-05-10T10:27:53.880Z,7.82
2023-05-10T10:30:57.457Z,10.85
2023-05-10T10:34:03.179Z,7.00
2023-05-10T10:37:07.127Z,7.97
2023-05-10T10:40:26.057Z,5.65
2023-05-10T10:43:31.486Z,6.45
2023-05-10T10:46:35.493Z,8.27
2023-05-10T10:49:41.236Z,6.03
2023-05-10T10:52:44.841Z,6.27
2023-05-10T10:55:53.788Z,7.35
2023-05-10T10:59:00.816Z,6.10
2023-05-10T11:02:03.837Z,4.47
2023-05-10T11:05:34.583Z,7.90
2023-05-10T11:08:46.079Z,8.43
2023-05-10T11:11:59.629Z,12.73
2023-05-10T11:15:12.823Z,4.45
2023-05-10T11:18:20.454Z,5.40
2023-05-10T11:21:23.602Z,4.77
2023-05-10T11:24:28.947Z,7.20
2023-05-10T11:27:31.571Z,8.55
2023-05-10T11:30:39.320Z,4.43
2023-05-10T11:33:54.005Z,6.35
2023-05-10T11:36:58.624Z,5.10
2023-05-10T11:40:02.067Z,4.20
2023-05-10T11:43:05.567Z,4.00
2023-05-10T11:46:13.626Z,5.88
2023-05-10T11:49:16.384Z,6.32
2023-05-10T11:52:20.255Z,4.97
2023-05-10T11:55:23.425Z,4.70
2023-05-10T11:58:26.375Z,5.68
2023-05-10T12:01:29.936Z,5.10
2023-05-10T12:04:47.973Z,4.10
2023-05-10T12:07:55.180Z,6.77
2023-05-10T12:11:16.594Z,5.07
2023-05-10T12:14:45.215Z,12.40
2023-05-10T12:18:18.654Z,4.97
2023-05-10T12:21:32.389Z,7.13
2023-05-10T12:24:41.076Z,12.80
2023-05-10T12:27:58.519Z,5.80
2023-05-10T12:31:16.877Z,5.22
2023-05-10T12:34:43.400Z,5.45
2023-05-10T12:37:52.139Z,6.57
2023-05-10T12:41:10.049Z,7.30
2023-05-10T12:44:20.625Z,6.60
2023-05-10T12:47:51.844Z,6.63
2023-05-10T12:51:16.209Z,6.93
2023-05-10T12:54:25.509Z,5.72
2023-05-10T12:57:36.497Z,6.43
2023-05-10T13:00:42.434Z,6.23
2023-05-10T13:03:51.484Z,8.60
2023-05-10T13:07:00.143Z,9.90
2023-05-10T13:10:02.937Z,6.18
2023-05-10T13:13:06.393Z,5.30
2023-05-10T13:16:10.384Z,9.57
2023-05-10T13:19:18.912Z,4.97
2023-05-10T13:22:36.421Z,5.95
2023-05-10T13:25:48.874Z,7.30
2023-05-10T13:28:57.883Z,6.63
2023-05-10T13:32:06.709Z,5.93
2023-05-10T13:35:18.303Z,6.25
2023-05-10T13:38:23.943Z,9.60
2023-05-10T13:41:28.640Z,5.65
2023-05-10T13:44:40.674Z,6.43
2023-05-10T13:47:43.585Z,7.70
2023-05-10T13:50:46.275Z,7.65
2023-05-10T13:53:48.858Z,6.53
2023-05-10T13:56:51.540Z,8.65
2023-05-10T13:59:55.875Z,4.57
2023-05-10T14:03:00.309Z,7.63
2023-05-10T14:06:03.569Z,6.70
2023-05-10T14:09:06.198Z,6.97
2023-05-10T14:12:09.233Z,5.93
2023-05-10T14:15:12.720Z,7.20
2023-05-10T14:18:15.454Z,11.07
2023-05-10T14:21:19.236Z,11.20
2023-05-10T14:24:21.915Z,5.07
2023-05-10T14:27:24.518Z,8.85
2023-05-10T14:30:27.152Z,6.17
2023-05-10T14:33:29.763Z,7.17
2023-05-10T14:36:34.757Z,5.15
2023-05-10T14:39:37.341Z,4.38
2023-05-10T14:42:39.938Z,4.68
2023-05-10T14:45:42.588Z,5.53
2023-05-10T14:48:45.238Z,5.07
2023-05-10T14:51:47.931Z,7.70
2023-05-10T14:54:50.560Z,7.22
2023-05-10T14:57:53.199Z,4.40
2023-05-10T15:00:55.832Z,5.33
2023-05-10T15:03:58.971Z,4.90
2023-05-10T15:07:01.923Z,9.02
2023-05-10T15:10:05.196Z,5.78
2023-05-10T15:13:07.905Z,6.40
2023-05-10T15:16:10.654Z,7.13
2023-05-10T15:19:13.309Z,9.23
2023-05-10T15:22:16.398Z,7.00
2023-05-10T15:25:21.910Z,4.90
2023-05-10T15:28:27.545Z,5.72
2023-05-10T15:31:30.340Z,6.77
2023-05-10T15:34:34.920Z,5.53
2023-05-10T15:37:40.818Z,5.93
2023-05-10T15:40:43.414Z,5.72
2023-05-10T15:43:46.054Z,7.95
2023-05-10T15:46:48.756Z,6.70
2023-05-10T15:49:51.425Z,5.47
2023-05-10T15:52:54.156Z,5.95
2023-05-10T15:55:56.854Z,6.75
2023-05-10T15:58:59.456Z,7.97
2023-05-10T16:02:04.176Z,6.10
2023-05-10T16:05:07.116Z,8.53
2023-05-10T16:08:09.887Z,9.80
2023-05-10T16:11:12.569Z,6.47
2023-05-10T16:14:16.278Z,6.10
2023-05-10T16:17:20.466Z,8.30
2023-05-10T16:20:23.450Z,5.93
2023-05-10T16:23:26.077Z,6.22
2023-05-10T16:26:28.685Z,6.40
2023-05-10T16:29:32.124Z,7.30
2023-05-10T16:32:35.322Z,4.90
2023-05-10T16:35:39.006Z,5.60
2023-05-10T16:38:43.150Z,6.95
2023-05-10T16:41:45.803Z,8.40
2023-05-10T16:44:51.108Z,5.15
2023-05-10T16:47:54.038Z,11.40
2023-05-10T16:51:09.649Z,7.97
2023-05-10T16:54:12.325Z,7.43
2023-05-10T16:57:14.970Z,9.90
2023-05-10T17:00:18.867Z,5.88
2023-05-10T17:03:24.888Z,5.53
2023-05-10T17:06:30.305Z,7.60
2023-05-10T17:09:33.007Z,6.15
2023-05-10T17:12:39.453Z,6.05
2023-05-10T17:15:42.197Z,5.72
2023-05-10T17:18:46.009Z,5.93
2023-05-10T17:21:48.940Z,4.77
2023-05-10T17:24:51.530Z,5.65
2023-05-10T17:27:54.152Z,6.47
2023-05-10T17:30:58.078Z,8.13
2023-05-10T17:34:01.804Z,7.40
2023-05-10T17:37:05.251Z,8.47
2023-05-10T17:40:10.178Z,5.32
2023-05-10T17:43:13.153Z,7.80
2023-05-10T17:46:15.853Z,5.45
2023-05-10T17:49:21.671Z,6.47
2023-05-10T17:52:24.383Z,5.63
2023-05-10T17:55:27.274Z,6.53
2023-05-10T17:58:30.507Z,6.60
2023-05-10T18:01:33.101Z,6.25
2023-05-10T18:04:35.908Z,6.70
2023-05-10T18:07:38.595Z,7.00
2023-05-10T18:10:41.633Z,8.32
2023-05-10T18:13:44.430Z,7.65
2023-05-10T18:16:50.380Z,9.65
2023-05-10T18:19:52.951Z,7.10
2023-05-10T18:22:56.159Z,14.17
2023-05-10T18:25:58.848Z,9.02
2023-05-10T18:29:01.758Z,8.75
2023-05-10T18:32:04.914Z,6.07
2023-05-10T18:35:08.341Z,6.13
2023-05-10T18:38:11.127Z,6.23
2023-05-10T18:41:14.663Z,7.85
2023-05-10T18:44:17.270Z,7.03
2023-05-10T18:47:20.079Z,7.10
2023-05-10T18:50:22.854Z,7.30
2023-05-10T18:53:25.571Z,5.03
2023-05-10T18:56:28.351Z,7.57
2023-05-10T18:59:36.950Z,5.55
2023-05-10T19:02:40.705Z,6.28
2023-05-10T19:05:43.431Z,7.70
2023-05-10T19:08:49.132Z,5.17
2023-05-10T19:11:51.976Z,5.38
2023-05-10T19:14:54.876Z,7.75
2023-05-10T19:17:57.622Z,5.47
2023-05-10T19:21:04.747Z,6.53
2023-05-10T19:24:07.703Z,4.97
2023-05-10T19:27:13.584Z,5.43
2023-05-10T19:30:16.263Z,6.20
2023-05-10T19:33:19.602Z,6.63
2023-05-10T19:36:22.392Z,5.47
2023-05-10T19:39:25.129Z,5.70
2023-05-10T19:42:28.016Z,7.88
2023-05-10T19:45:30.648Z,7.60
2023-05-10T19:48:33.432Z,6.88
2023-05-10T19:51:36.336Z,5.73
2023-05-10T19:54:40.138Z,7.73
2023-05-10T19:57:46.222Z,8.30
2023-05-10T20:00:54.248Z,5.78
2023-05-10T20:03:57.034Z,6.03
2023-05-10T20:06:59.715Z,8.03
2023-05-10T20:10:02.958Z,6.73
2023-05-10T20:13:05.715Z,6.10
2023-05-10T20:16:08.587Z,6.13
2023-05-10T20:19:12.346Z,8.45
2023-05-10T20:22:15.062Z,8.87
2023-05-10T20:25:18.864Z,7.47
2023-05-10T20:28:23.570Z,6.50
2023-05-10T20:31:26.622Z,6.80
2023-05-10T20:34:29.459Z,5.60
2023-05-10T20:37:32.335Z,7.93
2023-05-10T20:40:35.023Z,6.70
2023-05-10T20:43:37.805Z,7.25
2023-05-10T20:46:40.609Z,7.75
2023-05-10T20:49:43.310Z,6.30
2023-05-10T20:52:46.062Z,6.37
2023-05-10T20:55:48.715Z,6.87
2023-05-10T20:58:51.494Z,8.48
2023-05-10T21:01:54.286Z,6.80
2023-05-10T21:04:57.970Z,8.55
2023-05-10T21:08:00.848Z,7.63
2023-05-10T21:11:06.362Z,6.90
2023-05-10T21:14:09.827Z,7.13
2023-05-10T21:17:14.273Z,8.25
2023-05-10T21:20:17.321Z,6.00
2023-05-10T21:23:20.125Z,10.13
2023-05-10T21:26:23.363Z,6.93
2023-05-10T21:29:26.135Z,7.70
2023-05-10T21:32:28.763Z,10.25
2023-05-10T21:35:31.747Z,6.70
2023-05-10T21:38:34.521Z,9.23
2023-05-10T21:41:37.353Z,6.87
2023-05-10T21:44:42.538Z,7.57
2023-05-10T21:47:45.705Z,7.97
2023-05-10T21:50:48.426Z,7.07
2023-05-10T21:53:51.650Z,10.43
2023-05-10T21:56:55.249Z,9.37
2023-05-10T21:59:59.071Z,6.90
2023-05-10T22:03:02.042Z,5.90
2023-05-10T22:06:04.939Z,7.28
2023-05-10T22:09:07.681Z,6.93
2023-05-10T22:12:10.357Z,7.63
2023-05-10T22:15:13.129Z,7.22
2023-05-10T22:18:15.738Z,5.93
2023-05-10T22:21:18.346Z,6.85
2023-05-10T22:24:23.613Z,7.97
2023-05-10T22:27:26.303Z,6.17
2023-05-10T22:30:30.962Z,6.20
2023-05-10T22:33:39.442Z,7.13
2023-05-10T22:36:42.488Z,8.02
2023-05-10T22:39:54.055Z,10.90
2023-05-10T22:42:56.608Z,6.30
2023-05-10T22:45:59.209Z,8.35
2023-05-10T22:49:01.944Z,6.85
2023-05-10T22:52:08.766Z,7.75
2023-05-10T22:55:11.486Z,6.30
2023-05-10T22:58:14.216Z,7.93
2023-05-10T23:01:17.269Z,7.93
2023-05-10T23:04:22.856Z,7.53
2023-05-10T23:07:28.323Z,8.55
2023-05-10T23:10:30.849Z,8.83
2023-05-10T23:13:33.496Z,7.00
2023-05-10T23:16:36.318Z,7.70
2023-05-10T23:19:39.052Z,8.63
2023-05-10T23:22:41.653Z,7.35
2023-05-10T23:25:44.249Z,6.40
2023-05-10T23:28:47.030Z,7.47
2023-05-10T23:31:52.671Z,7.63
2023-05-10T23:34:55.384Z,6.35
2023-05-10T23:37:57.946Z,8.07
2023-05-10T23:41:00.594Z,6.90
2023-05-10T23:44:11.699Z,6.93
2023-05-10T23:47:14.285Z,6.70
2023-05-10T23:50:17.110Z,6.55
2023-05-10T23:53:19.993Z,7.50
2023-05-10T23:56:22.665Z,7.60
2023-05-10T23:59:25.684Z,7.70
